Time;durP1;ratioP1;P1;durP2;ratioP2;P2;SDS_P1;SDS_P2;PMS_P1;PMS_P2;Temp;Humidity;BMP_temperature;BMP_pressure;BME280_temperature;BME280_humidity;BME280_pressure;Samples;Min_cycle;Max_cycle;Signal;HPM_P1;HPM_P2
2023/12/27 00:04:05;;;;;;;127.20;118.35;;;4.10;99.90;;;;;;12334191;28;20263;-35
2023/12/27 00:10:07;;;;;;;124.22;115.40;;;4.00;99.90;;;;;;12341809;28;20059;-35
2023/12/27 00:16:10;;;;;;;123.15;114.65;;;4.00;99.90;;;;;;12349221;28;20059;-35
2023/12/27 00:22:14;;;;;;;121.57;113.05;;;4.00;99.90;;;;;;12336600;28;20042;-36
2023/12/27 00:28:16;;;;;;;127.63;118.60;;;4.00;99.90;;;;;;12321132;28;20465;-34
2023/12/27 00:34:18;;;;;;;128.20;119.57;;;4.00;99.90;;;;;;12334449;28;20414;-35
2023/12/27 00:40:20;;;;;;;125.10;116.43;;;3.90;99.90;;;;;;12328512;28;21838;-34
2023/12/27 00:46:21;;;;;;;125.00;116.15;;;3.90;99.90;;;;;;12346443;28;20065;-35
2023/12/27 00:52:23;;;;;;;117.65;109.38;;;3.90;99.90;;;;;;12354889;28;20047;-35
2023/12/27 00:58:25;;;;;;;125.75;116.82;;;3.90;99.90;;;;;;12321079;28;20059;-35
2023/12/27 01:04:27;;;;;;;122.57;114.18;;;3.80;99.90;;;;;;12323725;28;20046;-34
2023/12/27 01:10:29;;;;;;;121.20;112.78;;;3.80;99.90;;;;;;12323174;28;20050;-35
2023/12/27 01:16:31;;;;;;;127.03;118.55;;;3.90;99.90;;;;;;12314113;28;20047;-35
2023/12/27 01:22:33;;;;;;;126.55;117.63;;;3.80;99.90;;;;;;12321328;28;20094;-35
2023/12/27 01:28:35;;;;;;;128.38;119.40;;;3.80;99.90;;;;;;12324416;28;20058;-35
2023/12/27 01:34:38;;;;;;;126.88;117.68;;;3.70;99.90;;;;;;12321952;28;20089;-34
2023/12/27 01:40:50;;;;;;;133.55;124.45;;;3.60;99.90;;;;;;12329102;28;20058;-35
2023/12/27 01:46:52;;;;;;;134.68;125.60;;;3.50;99.90;;;;;;12343943;28;20051;-35
2023/12/27 01:52:54;;;;;;;138.52;129.20;;;3.40;99.90;;;;;;12310142;28;20055;-35
2023/12/27 01:58:57;;;;;;;146.35;135.88;;;3.30;99.90;;;;;;12320852;28;20051;-35
2023/12/27 02:04:59;;;;;;;149.68;139.77;;;3.20;99.90;;;;;;12331904;28;20047;-35
2023/12/27 02:11:01;;;;;;;146.63;136.63;;;3.10;99.90;;;;;;12329638;28;20077;-34
2023/12/27 02:17:04;;;;;;;144.30;134.60;;;3.00;99.90;;;;;;12342761;28;20050;-34
2023/12/27 02:23:07;;;;;;;145.98;136.05;;;2.80;99.90;;;;;;12333852;28;20452;-35
2023/12/27 02:29:09;;;;;;;143.23;133.37;;;2.70;99.90;;;;;;12320969;28;20670;-34
2023/12/27 02:35:12;;;;;;;145.02;135.30;;;2.80;99.90;;;;;;12323501;28;20055;-35
2023/12/27 02:41:14;;;;;;;146.38;136.85;;;2.80;99.90;;;;;;12322148;28;20103;-35
2023/12/27 02:47:16;;;;;;;146.65;136.95;;;2.70;99.90;;;;;;12341800;28;20438;-34
2023/12/27 02:53:17;;;;;;;147.23;137.75;;;2.70;99.90;;;;;;12340952;28;20093;-35
2023/12/27 02:59:19;;;;;;;150.07;140.27;;;2.70;99.90;;;;;;12320829;28;20555;-35
2023/12/27 03:05:21;;;;;;;151.35;141.02;;;2.60;99.90;;;;;;12334418;28;20516;-35
2023/12/27 03:11:23;;;;;;;153.27;143.07;;;2.60;99.90;;;;;;12345215;28;20047;-35
2023/12/27 03:17:25;;;;;;;160.63;149.63;;;2.50;99.90;;;;;;12329921;28;20062;-35
2023/12/27 03:23:27;;;;;;;155.60;145.10;;;2.10;99.90;;;;;;12328244;28;20403;-35
2023/12/27 03:29:29;;;;;;;156.27;145.95;;;2.10;99.90;;;;;;12337630;28;20055;-35
2023/12/27 03:35:31;;;;;;;143.02;133.40;;;2.10;99.90;;;;;;12343676;28;20043;-35
2023/12/27 03:41:33;;;;;;;139.10;129.82;;;2.60;99.90;;;;;;12329294;28;20053;-35
2023/12/27 03:47:35;;;;;;;144.13;134.82;;;3.00;99.90;;;;;;12331418;28;20050;-35
2023/12/27 03:53:36;;;;;;;151.82;141.77;;;3.00;99.90;;;;;;12332637;28;20495;-35
2023/12/27 03:59:39;;;;;;;153.55;143.25;;;3.10;99.90;;;;;;12339593;28;20043;-35
2023/12/27 04:05:41;;;;;;;154.00;143.98;;;3.20;99.90;;;;;;12337784;28;20407;-35
2023/12/27 04:11:44;;;;;;;152.98;142.50;;;3.40;99.90;;;;;;12334358;28;20051;-35
2023/12/27 04:17:47;;;;;;;154.60;144.13;;;3.40;99.90;;;;;;12314466;28;21128;-35
2023/12/27 04:23:49;;;;;;;163.73;152.88;;;3.40;99.90;;;;;;12332479;28;20059;-35
2023/12/27 04:29:51;;;;;;;163.20;152.23;;;3.50;99.90;;;;;;12329086;28;20058;-35
2023/12/27 04:35:53;;;;;;;163.95;152.95;;;3.40;99.90;;;;;;12323050;28;20066;-35
2023/12/27 04:41:54;;;;;;;168.00;156.63;;;3.50;99.90;;;;;;12336174;28;20047;-35
2023/12/27 04:47:56;;;;;;;173.32;161.95;;;3.40;99.90;;;;;;12336587;28;20475;-35
2023/12/27 04:53:59;;;;;;;166.23;154.98;;;3.40;99.90;;;;;;12330293;28;20058;-35
2023/12/27 05:00:01;;;;;;;170.50;158.88;;;3.60;99.90;;;;;;12339729;28;20533;-35
2023/12/27 05:06:08;;;;;;;169.38;157.48;;;3.40;99.90;;;;;;12327854;28;20058;-34
2023/12/27 05:12:11;;;;;;;164.95;153.50;;;3.30;99.90;;;;;;12331160;28;20063;-35
2023/12/27 05:18:13;;;;;;;171.10;159.43;;;3.10;99.90;;;;;;12326671;28;20061;-35
2023/12/27 05:24:16;;;;;;;166.30;155.02;;;3.00;99.90;;;;;;12321024;28;20221;-35
2023/12/27 05:30:18;;;;;;;177.55;164.85;;;3.20;99.90;;;;;;12318716;28;20104;-35
2023/12/27 05:36:20;;;;;;;166.65;154.88;;;3.10;99.90;;;;;;12329171;28;20054;-34
2023/12/27 05:42:22;;;;;;;168.77;157.02;;;2.90;99.90;;;;;;12311744;28;20043;-35
2023/12/27 05:48:23;;;;;;;169.20;157.10;;;2.90;99.90;;;;;;12312081;28;20406;-35
2023/12/27 05:54:26;;;;;;;166.65;155.00;;;2.70;99.90;;;;;;12320210;28;20077;-35
2023/12/27 06:00:28;;;;;;;165.98;153.90;;;2.70;99.90;;;;;;12325225;28;20388;-35
2023/12/27 06:06:30;;;;;;;166.38;154.63;;;2.60;99.90;;;;;;12320442;28;20188;-35
2023/12/27 06:12:32;;;;;;;167.45;155.43;;;2.60;99.90;;;;;;12315832;28;20078;-35
2023/12/27 06:18:34;;;;;;;164.52;152.80;;;2.60;99.90;;;;;;12323572;28;20080;-35
2023/12/27 06:24:37;;;;;;;167.25;155.77;;;2.70;99.90;;;;;;12312754;28;20702;-35
2023/12/27 06:30:38;;;;;;;178.85;166.50;;;2.70;99.90;;;;;;12315024;28;20095;-35
2023/12/27 06:36:41;;;;;;;179.18;166.50;;;2.80;99.90;;;;;;12313309;28;20047;-35
2023/12/27 06:42:43;;;;;;;173.68;161.38;;;2.70;99.90;;;;;;12327732;28;20400;-34
2023/12/27 06:48:45;;;;;;;176.00;163.70;;;2.90;99.90;;;;;;12325725;28;20051;-35
2023/12/27 06:54:47;;;;;;;168.63;157.25;;;3.00;99.90;;;;;;12303390;28;20062;-35
2023/12/27 07:00:49;;;;;;;163.02;152.18;;;3.30;99.90;;;;;;12321594;28;20047;-34
2023/12/27 07:06:51;;;;;;;162.35;151.23;;;3.50;99.90;;;;;;12333323;28;20050;-34
2023/12/27 07:12:53;;;;;;;175.48;163.25;;;3.70;99.90;;;;;;12301923;28;20055;-35
2023/12/27 07:18:56;;;;;;;178.73;166.05;;;3.80;99.90;;;;;;12324604;28;20043;-35
2023/12/27 07:24:58;;;;;;;184.65;171.77;;;3.90;99.90;;;;;;12309593;28;20039;-35
2023/12/27 07:31:00;;;;;;;186.77;174.32;;;3.90;99.90;;;;;;12324614;28;20099;-35
2023/12/27 07:37:03;;;;;;;196.93;183.32;;;3.90;99.90;;;;;;12335004;28;20134;-35
2023/12/27 07:43:06;;;;;;;202.32;188.68;;;4.00;99.90;;;;;;12337366;28;20050;-35
2023/12/27 07:49:07;;;;;;;201.88;188.25;;;4.00;99.90;;;;;;12329672;28;20141;-35
2023/12/27 07:55:10;;;;;;;198.90;185.38;;;4.00;99.90;;;;;;12338114;28;20061;-34
2023/12/27 08:01:12;;;;;;;199.20;185.50;;;4.00;99.90;;;;;;12337605;28;20063;-35
2023/12/27 08:07:14;;;;;;;187.88;175.18;;;4.00;99.90;;;;;;12335050;28;20058;-34
2023/12/27 08:13:16;;;;;;;187.73;175.30;;;4.00;99.90;;;;;;12337166;28;20485;-35
2023/12/27 08:19:18;;;;;;;189.23;176.75;;;4.00;99.90;;;;;;12334270;28;20046;-35
2023/12/27 08:25:20;;;;;;;175.18;163.35;;;4.00;99.90;;;;;;12327383;28;20159;-35
2023/12/27 08:31:21;;;;;;;174.10;162.52;;;4.10;99.90;;;;;;12326869;28;20402;-35
2023/12/27 08:37:23;;;;;;;171.90;160.30;;;4.00;99.90;;;;;;12320219;28;20077;-35
2023/12/27 08:43:29;;;;;;;159.05;148.48;;;4.10;99.90;;;;;;12327368;28;20074;-35
2023/12/27 08:49:31;;;;;;;161.07;150.18;;;4.10;99.90;;;;;;12330261;28;20059;-34
2023/12/27 08:55:34;;;;;;;165.60;154.55;;;4.10;99.90;;;;;;12323476;28;20093;-35
2023/12/27 09:01:36;;;;;;;162.40;151.65;;;4.20;99.90;;;;;;12320003;28;20054;-35
2023/12/27 09:07:38;;;;;;;160.55;150.07;;;4.20;99.90;;;;;;12332277;28;20061;-35
2023/12/27 09:13:40;;;;;;;165.10;153.85;;;4.30;99.90;;;;;;12334340;28;20057;-35
2023/12/27 09:19:43;;;;;;;165.88;155.25;;;4.30;99.90;;;;;;12329293;28;20505;-35
2023/12/27 09:25:45;;;;;;;165.43;154.63;;;4.40;99.90;;;;;;12333450;28;20081;-35
2023/12/27 09:31:47;;;;;;;164.55;153.77;;;4.60;99.90;;;;;;12325403;28;20047;-35
2023/12/27 09:37:49;;;;;;;175.77;163.95;;;4.70;99.90;;;;;;12319892;28;20047;-35
2023/12/27 09:43:53;;;;;;;195.55;182.55;;;4.90;99.90;;;;;;12318957;28;20101;-35
2023/12/27 09:49:58;;;;;;;205.57;192.05;;;5.00;99.90;;;;;;12320137;28;20058;-35
2023/12/27 09:56:00;;;;;;;206.48;192.57;;;5.10;99.90;;;;;;12321500;28;20170;-34
2023/12/27 10:02:04;;;;;;;186.52;173.98;;;5.10;99.90;;;;;;12324117;28;20046;-35
2023/12/27 10:08:06;;;;;;;196.80;183.95;;;5.10;99.90;;;;;;12327697;28;20047;-34
2023/12/27 10:14:13;;;;;;;204.75;191.07;;;5.10;99.90;;;;;;12339443;28;20053;-35
2023/12/27 10:20:32;;;;;;;201.35;187.65;;;5.20;99.90;;;;;;12323297;28;20043;-34
2023/12/27 10:26:35;;;;;;;183.73;171.25;;;5.20;99.90;;;;;;12332008;28;20046;-35
2023/12/27 10:32:37;;;;;;;189.23;176.43;;;5.30;99.90;;;;;;12330686;28;20079;-35
2023/12/27 10:38:39;;;;;;;193.13;180.40;;;5.30;99.90;;;;;;12333214;28;20043;-35
2023/12/27 10:44:48;;;;;;;196.43;182.77;;;5.40;99.90;;;;;;12321601;28;20070;-34
2023/12/27 10:50:51;;;;;;;196.00;182.43;;;5.40;99.90;;;;;;12318209;28;20043;-35
2023/12/27 10:56:56;;;;;;;201.90;188.65;;;5.50;99.90;;;;;;12319805;28;20537;-35
2023/12/27 11:02:58;;;;;;;201.30;187.75;;;5.40;99.90;;;;;;12330521;28;20083;-34
2023/12/27 11:09:06;;;;;;;191.27;178.43;;;5.50;99.90;;;;;;12323681;28;20406;-35
2023/12/27 11:15:10;;;;;;;199.43;186.23;;;5.60;99.90;;;;;;12323624;28;20092;-35
2023/12/27 11:21:15;;;;;;;205.57;191.68;;;5.70;99.90;;;;;;12347515;28;20490;-34
2023/12/27 11:27:17;;;;;;;;;;;5.70;99.90;;;;;;12333213;28;20100;-34
2023/12/27 11:33:22;;;;;;;237.00;221.48;;;5.70;99.90;;;;;;12330299;28;20417;-34
2023/12/27 11:39:28;;;;;;;254.10;238.18;;;5.70;99.90;;;;;;12333204;28;20050;-35
2023/12/27 11:45:58;;;;;;;256.40;240.40;;;5.80;99.90;;;;;;12323555;28;20077;-34
2023/12/27 11:52:00;;;;;;;262.80;246.35;;;5.80;99.90;;;;;;12337497;28;20051;-34
2023/12/27 11:58:02;;;;;;;261.77;245.18;;;5.90;99.90;;;;;;12330294;28;20047;-34
2023/12/27 12:04:22;;;;;;;255.30;239.32;;;5.90;99.90;;;;;;12341886;28;20047;-35
2023/12/27 12:10:26;;;;;;;251.45;235.68;;;6.00;99.90;;;;;;12327274;28;20101;-34
2023/12/27 12:16:31;;;;;;;258.17;242.32;;;6.10;99.90;;;;;;12329905;28;20054;-35
2023/12/27 12:22:35;;;;;;;265.48;248.82;;;6.10;99.90;;;;;;12326537;28;20510;-34
2023/12/27 12:28:37;;;;;;;268.70;251.83;;;6.20;99.90;;;;;;12319934;28;20479;-35
2023/12/27 12:34:40;;;;;;;262.98;246.80;;;6.20;99.90;;;;;;12338130;28;20074;-35
2023/12/27 12:40:42;;;;;;;280.08;262.38;;;6.20;99.90;;;;;;12329660;28;20042;-35
2023/12/27 12:46:44;;;;;;;268.90;252.20;;;6.20;99.90;;;;;;12358358;28;20097;-35
2023/12/27 12:52:46;;;;;;;265.38;249.10;;;6.10;99.90;;;;;;12320825;28;20047;-35
2023/12/27 12:58:49;;;;;;;256.02;240.13;;;6.20;99.90;;;;;;12320414;28;20051;-36
2023/12/27 13:04:52;;;;;;;275.70;258.73;;;6.20;99.90;;;;;;12319404;28;20046;-35
2023/12/27 13:10:55;;;;;;;284.43;267.07;;;6.30;99.90;;;;;;12325376;28;20059;-35
2023/12/27 13:16:57;;;;;;;287.80;270.58;;;6.30;99.90;;;;;;12337502;28;20055;-35
2023/12/27 13:22:59;;;;;;;277.30;260.40;;;6.30;99.90;;;;;;12337116;28;20054;-35
2023/12/27 13:29:01;;;;;;;290.20;272.60;;;6.30;99.90;;;;;;12344416;28;20479;-35
2023/12/27 13:35:03;;;;;;;279.77;262.60;;;6.20;99.90;;;;;;12333625;28;20054;-35
2023/12/27 13:41:05;;;;;;;289.20;271.55;;;6.20;99.90;;;;;;12342637;28;20062;-35
2023/12/27 13:47:07;;;;;;;287.85;270.58;;;6.20;99.90;;;;;;12334979;28;20050;-35
2023/12/27 13:53:10;;;;;;;296.98;279.20;;;6.20;99.90;;;;;;12326884;28;20066;-35
2023/12/27 13:59:12;;;;;;;305.70;287.58;;;6.20;99.90;;;;;;12314680;28;20044;-35
2023/12/27 14:05:14;;;;;;;309.05;290.60;;;6.20;99.90;;;;;;12322230;28;20487;-36
2023/12/27 14:11:16;;;;;;;295.67;278.10;;;6.20;99.90;;;;;;12313682;28;20061;-35
2023/12/27 14:17:18;;;;;;;292.08;274.60;;;6.30;99.90;;;;;;12315634;28;20535;-36
2023/12/27 14:23:20;;;;;;;306.70;288.15;;;6.30;99.90;;;;;;12323438;28;20407;-35
2023/12/27 14:29:22;;;;;;;313.67;294.95;;;6.20;99.90;;;;;;12319491;28;20130;-36
2023/12/27 14:35:24;;;;;;;315.15;296.45;;;6.30;99.90;;;;;;12325834;28;20055;-35
2023/12/27 14:41:26;;;;;;;292.95;275.27;;;6.30;99.90;;;;;;12322187;28;20043;-36
2023/12/27 14:47:28;;;;;;;286.40;268.83;;;6.30;99.90;;;;;;12320184;28;20763;-35
2023/12/27 14:53:33;;;;;;;285.73;268.35;;;6.30;99.90;;;;;;12338445;28;20051;-35
2023/12/27 14:59:35;;;;;;;275.25;258.00;;;6.30;99.90;;;;;;12334336;28;20631;-36
2023/12/27 15:05:37;;;;;;;263.20;247.27;;;6.40;99.90;;;;;;12325783;28;20118;-35
2023/12/27 15:11:41;;;;;;;267.75;251.27;;;6.50;99.90;;;;;;12335449;28;20047;-35
2023/12/27 15:17:44;;;;;;;260.08;244.05;;;6.60;99.90;;;;;;12351635;28;20072;-36
2023/12/27 15:23:47;;;;;;;253.43;237.83;;;6.60;99.90;;;;;;12326501;28;20054;-35
2023/12/27 15:29:48;;;;;;;253.23;237.48;;;6.70;99.90;;;;;;12329599;28;20054;-36
2023/12/27 15:35:50;;;;;;;258.02;241.98;;;6.70;99.90;;;;;;12347604;28;20460;-35
2023/12/27 15:41:52;;;;;;;247.10;231.20;;;6.70;99.90;;;;;;12354380;28;20043;-35
2023/12/27 15:47:54;;;;;;;238.63;223.52;;;6.80;99.90;;;;;;12337979;28;20089;-36
2023/12/27 15:53:57;;;;;;;240.13;225.23;;;6.90;99.90;;;;;;12339623;28;20058;-35
2023/12/27 15:59:59;;;;;;;247.68;232.25;;;6.90;99.90;;;;;;12335265;28;20058;-35
2023/12/27 16:06:01;;;;;;;234.02;219.65;;;7.00;99.90;;;;;;12331449;28;20568;-35
2023/12/27 16:12:03;;;;;;;230.18;216.00;;;7.10;99.90;;;;;;12336294;28;20717;-36
2023/12/27 16:18:05;;;;;;;233.73;219.32;;;7.10;99.90;;;;;;12343256;28;20503;-36
2023/12/27 16:24:07;;;;;;;233.90;219.45;;;7.10;99.90;;;;;;12345842;28;20522;-35
2023/12/27 16:30:10;;;;;;;221.45;207.50;;;7.10;99.90;;;;;;12328076;28;20086;-35
2023/12/27 16:36:17;;;;;;;211.40;198.30;;;7.00;99.90;;;;;;12340071;28;21269;-35
2023/12/27 16:42:19;;;;;;;196.48;183.98;;;7.10;99.90;;;;;;12338907;28;20129;-36
2023/12/27 16:48:22;;;;;;;198.35;185.68;;;7.30;99.90;;;;;;12340196;28;20051;-35
2023/12/27 16:54:24;;;;;;;208.48;195.27;;;7.20;99.90;;;;;;12339119;28;20079;-36
2023/12/27 17:00:26;;;;;;;210.40;196.93;;;7.20;99.90;;;;;;12345180;28;20099;-36
2023/12/27 17:06:29;;;;;;;202.18;189.40;;;7.20;99.90;;;;;;12336756;28;20068;-36
2023/12/27 17:12:31;;;;;;;195.80;182.90;;;7.20;99.90;;;;;;12335150;28;20107;-35
2023/12/27 17:18:33;;;;;;;185.82;173.63;;;7.20;99.90;;;;;;12324188;28;20051;-35
2023/12/27 17:24:35;;;;;;;182.25;170.18;;;7.30;99.90;;;;;;12322921;28;20047;-35
2023/12/27 17:30:37;;;;;;;181.73;169.60;;;7.40;99.90;;;;;;12339010;28;20051;-36
2023/12/27 17:36:39;;;;;;;176.95;165.25;;;7.40;99.90;;;;;;12327068;28;20146;-35
2023/12/27 17:42:41;;;;;;;175.40;163.70;;;7.40;99.90;;;;;;12334410;28;20138;-36
2023/12/27 17:48:43;;;;;;;186.52;174.15;;;7.40;99.90;;;;;;12335772;28;20059;-35
2023/12/27 17:54:47;;;;;;;174.93;163.30;;;7.50;99.90;;;;;;12318602;28;20491;-36
2023/12/27 18:00:50;;;;;;;175.35;163.63;;;7.50;99.90;;;;;;12313112;28;20047;-35
2023/12/27 18:06:52;;;;;;;165.25;154.25;;;7.50;99.90;;;;;;12325560;28;20419;-35
2023/12/27 18:12:54;;;;;;;164.85;153.80;;;7.40;99.90;;;;;;12333525;28;20105;-36
2023/12/27 18:18:57;;;;;;;161.00;150.05;;;7.40;99.90;;;;;;12329029;28;20494;-35
2023/12/27 18:24:59;;;;;;;165.50;154.07;;;7.40;99.90;;;;;;12337907;28;20047;-35
2023/12/27 18:31:02;;;;;;;161.23;150.25;;;7.40;99.90;;;;;;12324904;28;20402;-35
2023/12/27 18:37:04;;;;;;;171.55;159.88;;;7.50;99.90;;;;;;12327108;28;20050;-35
2023/12/27 18:43:06;;;;;;;168.35;156.82;;;7.50;99.90;;;;;;12325017;28;20043;-35
2023/12/27 18:49:09;;;;;;;165.48;154.25;;;7.40;99.90;;;;;;12319971;28;20073;-35
2023/12/27 18:55:11;;;;;;;156.15;145.50;;;7.50;99.90;;;;;;12329206;28;20054;-35
2023/12/27 19:01:13;;;;;;;156.57;145.90;;;7.50;99.90;;;;;;12321509;28;20047;-36
2023/12/27 19:07:15;;;;;;;159.13;148.38;;;7.60;99.90;;;;;;12322675;28;20418;-35
2023/12/27 19:13:17;;;;;;;155.18;144.93;;;7.70;99.90;;;;;;12338004;28;20051;-35
2023/12/27 19:19:19;;;;;;;151.00;140.30;;;7.70;99.90;;;;;;12328986;28;20141;-36
2023/12/27 19:25:25;;;;;;;150.48;139.80;;;7.80;99.90;;;;;;12317010;28;20132;-36
2023/12/27 19:31:27;;;;;;;149.13;138.82;;;7.70;99.90;;;;;;12329420;28;20447;-35
2023/12/27 19:37:30;;;;;;;140.80;130.90;;;7.80;99.90;;;;;;12356709;28;20054;-35
2023/12/27 19:43:33;;;;;;;144.50;134.07;;;7.90;99.90;;;;;;12347928;28;20406;-36
2023/12/27 19:49:35;;;;;;;131.60;122.18;;;8.00;99.90;;;;;;12364871;28;20430;-35
2023/12/27 19:55:38;;;;;;;154.65;143.90;;;8.00;99.90;;;;;;12346032;28;20062;-35
2023/12/27 20:01:40;;;;;;;142.98;133.32;;;7.90;99.90;;;;;;12325315;28;20107;-35
2023/12/27 20:07:42;;;;;;;143.13;133.77;;;7.90;99.90;;;;;;12342036;28;20107;-35
2023/12/27 20:13:44;;;;;;;151.20;141.30;;;8.00;99.90;;;;;;12322251;28;20050;-35
2023/12/27 20:19:47;;;;;;;155.73;145.95;;;8.10;99.90;;;;;;12319250;28;20046;-36
2023/12/27 20:25:49;;;;;;;163.15;153.68;;;8.10;99.90;;;;;;12341536;28;20055;-36
2023/12/27 20:31:51;;;;;;;158.32;149.43;;;8.20;99.90;;;;;;12314647;28;20082;-36
2023/12/27 20:37:53;;;;;;;156.10;147.80;;;8.30;99.90;;;;;;12326340;28;20134;-35
2023/12/27 20:43:54;;;;;;;163.23;154.70;;;8.40;99.90;;;;;;12339116;28;20126;-36
2023/12/27 20:49:56;;;;;;;156.90;148.93;;;8.50;99.90;;;;;;12316391;28;20099;-35
2023/12/27 20:56:00;;;;;;;160.88;152.82;;;8.40;99.90;;;;;;12323517;28;20062;-36
2023/12/27 21:02:02;;;;;;;157.20;149.20;;;8.40;99.90;;;;;;12330828;28;20050;-36
2023/12/27 21:08:04;;;;;;;156.43;148.63;;;8.50;99.90;;;;;;12330271;28;20090;-36
2023/12/27 21:14:10;;;;;;;150.88;143.52;;;8.30;99.90;;;;;;12342130;28;20058;-35
2023/12/27 21:20:12;;;;;;;142.00;135.15;;;8.20;99.90;;;;;;12321172;28;20053;-36
2023/12/27 21:26:21;;;;;;;145.50;138.48;;;8.20;99.90;;;;;;12322729;28;20126;-36
2023/12/27 21:32:23;;;;;;;137.07;130.52;;;8.10;99.90;;;;;;12335103;28;20054;-36
2023/12/27 21:38:25;;;;;;;130.30;124.13;;;8.10;99.90;;;;;;12312964;28;20043;-36
2023/12/27 21:44:28;;;;;;;127.72;121.57;;;8.10;99.90;;;;;;12316355;28;20051;-35
2023/12/27 21:50:35;;;;;;;121.72;115.82;;;8.00;99.90;;;;;;12335418;28;20081;-35
2023/12/27 21:56:37;;;;;;;120.63;114.82;;;8.10;99.90;;;;;;12323188;28;20046;-36
2023/12/27 22:02:39;;;;;;;106.93;101.85;;;8.10;99.90;;;;;;12321146;28;20534;-35
2023/12/27 22:08:42;;;;;;;108.50;103.40;;;8.10;99.90;;;;;;12320635;28;20103;-36
2023/12/27 22:14:43;;;;;;;101.93;97.13;;;8.00;99.90;;;;;;12323476;28;20062;-36
2023/12/27 22:20:45;;;;;;;86.78;82.70;;;8.10;99.90;;;;;;12321319;28;20081;-35
2023/12/27 22:26:47;;;;;;;71.70;68.30;;;8.10;99.90;;;;;;12313690;28;20054;-35
2023/12/27 22:32:49;;;;;;;62.20;59.10;;;8.20;99.90;;;;;;12313381;28;20062;-35
2023/12/27 22:38:53;;;;;;;55.28;52.60;;;8.40;99.90;;;;;;12311343;28;20092;-35
2023/12/27 22:44:56;;;;;;;49.65;47.15;;;8.50;99.90;;;;;;12327867;28;20047;-35
2023/12/27 22:50:58;;;;;;;51.22;48.63;;;8.60;99.90;;;;;;12324249;28;20062;-35
2023/12/27 22:57:02;;;;;;;70.57;66.97;;;8.60;99.90;;;;;;12351968;28;20059;-36
2023/12/27 23:03:04;;;;;;;99.32;94.60;;;8.60;99.90;;;;;;12347027;28;20101;-36
2023/12/27 23:09:06;;;;;;;92.30;87.72;;;8.30;99.90;;;;;;12335785;28;20062;-34
2023/12/27 23:15:08;;;;;;;85.78;81.68;;;8.40;99.90;;;;;;12340309;28;20059;-36
2023/12/27 23:21:10;;;;;;;83.47;79.38;;;8.50;99.90;;;;;;12346972;28;20423;-35
2023/12/27 23:27:13;;;;;;;75.18;71.47;;;8.50;99.90;;;;;;12326200;28;20050;-36
2023/12/27 23:33:16;;;;;;;81.03;77.03;;;8.50;99.90;;;;;;12324083;28;20062;-36
2023/12/27 23:39:18;;;;;;;72.25;68.75;;;8.40;1.00;;;;;;12341792;28;20414;-36
2023/12/27 23:45:20;;;;;;;74.10;70.57;;;8.60;1.00;;;;;;12346400;28;20061;-35
2023/12/27 23:51:22;;;;;;;83.72;79.72;;;8.60;1.00;;;;;;12329093;28;20047;-35
2023/12/27 23:57:24;;;;;;;88.57;84.38;;;8.60;33.20;;;;;;12339121;28;20058;-35
